sensor_id;sensor_type;location;lat;lon;timestamp;P1;durP1;ratioP1;P2;durP2;ratioP2
38499;SDS011;24269;51.894;4.622;2022-12-15T00:02:41;17.15;;;8.40;;
38499;SDS011;24269;51.894;4.622;2022-12-15T00:05:25;16.35;;;8.00;;
38499;SDS011;24269;51.894;4.622;2022-12-15T00:08:09;20.65;;;9.35;;
38499;SDS011;24269;51.894;4.622;2022-12-15T00:10:54;24.02;;;11.90;;
38499;SDS011;24269;51.894;4.622;2022-12-15T00:13:39;16.85;;;9.55;;
38499;SDS011;24269;51.894;4.622;2022-12-15T00:16:23;18.77;;;9.57;;
38499;SDS011;24269;51.894;4.622;2022-12-15T00:19:08;19.02;;;8.48;;
38499;SDS011;24269;51.894;4.622;2022-12-15T00:21:52;19.17;;;9.07;;
38499;SDS011;24269;51.894;4.622;2022-12-15T00:24:36;20.05;;;8.45;;
38499;SDS011;24269;51.894;4.622;2022-12-15T00:27:20;20.42;;;9.35;;
38499;SDS011;24269;51.894;4.622;2022-12-15T00:30:05;21.83;;;9.63;;
38499;SDS011;24269;51.894;4.622;2022-12-15T00:32:50;53.33;;;20.95;;
38499;SDS011;24269;51.894;4.622;2022-12-15T00:35:35;50.22;;;23.42;;
38499;SDS011;24269;51.894;4.622;2022-12-15T00:38:19;30.52;;;13.90;;
38499;SDS011;24269;51.894;4.622;2022-12-15T00:41:04;20.20;;;9.63;;
38499;SDS011;24269;51.894;4.622;2022-12-15T00:43:30;22.73;;;10.50;;
38499;SDS011;24269;51.894;4.622;2022-12-15T00:45:57;14.20;;;7.53;;
38499;SDS011;24269;51.894;4.622;2022-12-15T00:48:42;16.65;;;8.73;;
38499;SDS011;24269;51.894;4.622;2022-12-15T00:51:08;16.90;;;8.18;;
38499;SDS011;24269;51.894;4.622;2022-12-15T00:53:34;16.95;;;8.13;;
38499;SDS011;24269;51.894;4.622;2022-12-15T00:56:19;13.77;;;7.32;;
38499;SDS011;24269;51.894;4.622;2022-12-15T00:59:03;15.35;;;7.65;;
38499;SDS011;24269;51.894;4.622;2022-12-15T01:01:47;12.05;;;6.80;;
38499;SDS011;24269;51.894;4.622;2022-12-15T01:04:31;14.50;;;7.53;;
38499;SDS011;24269;51.894;4.622;2022-12-15T01:07:16;15.57;;;7.53;;
38499;SDS011;24269;51.894;4.622;2022-12-15T01:10:00;16.33;;;7.30;;
38499;SDS011;24269;51.894;4.622;2022-12-15T01:12:45;14.98;;;7.10;;
38499;SDS011;24269;51.894;4.622;2022-12-15T01:15:29;13.95;;;7.13;;
38499;SDS011;24269;51.894;4.622;2022-12-15T01:18:14;14.23;;;7.32;;
38499;SDS011;24269;51.894;4.622;2022-12-15T01:20:59;23.58;;;10.05;;
38499;SDS011;24269;51.894;4.622;2022-12-15T01:23:27;15.00;;;7.43;;
38499;SDS011;24269;51.894;4.622;2022-12-15T01:25:53;15.50;;;7.05;;
38499;SDS011;24269;51.894;4.622;2022-12-15T01:28:21;16.13;;;7.03;;
38499;SDS011;24269;51.894;4.622;2022-12-15T01:30:48;16.95;;;7.03;;
38499;SDS011;24269;51.894;4.622;2022-12-15T01:33:14;16.25;;;6.95;;
38499;SDS011;24269;51.894;4.622;2022-12-15T01:35:41;14.23;;;6.78;;
38499;SDS011;24269;51.894;4.622;2022-12-15T01:38:07;14.77;;;6.72;;
38499;SDS011;24269;51.894;4.622;2022-12-15T01:40:33;12.18;;;6.78;;
38499;SDS011;24269;51.894;4.622;2022-12-15T01:48:25;17.08;;;6.60;;
38499;SDS011;24269;51.894;4.622;2022-12-15T01:50:58;18.55;;;6.85;;
38499;SDS011;24269;51.894;4.622;2022-12-15T01:53:28;14.95;;;6.63;;
38499;SDS011;24269;51.894;4.622;2022-12-15T01:55:59;16.15;;;6.50;;
38499;SDS011;24269;51.894;4.622;2022-12-15T01:58:26;15.68;;;6.93;;
38499;SDS011;24269;51.894;4.622;2022-12-15T02:00:53;14.20;;;6.90;;
38499;SDS011;24269;51.894;4.622;2022-12-15T02:03:21;81.60;;;31.98;;
38499;SDS011;24269;51.894;4.622;2022-12-15T02:05:47;81.43;;;40.03;;
38499;SDS011;24269;51.894;4.622;2022-12-15T02:08:13;81.80;;;37.88;;
38499;SDS011;24269;51.894;4.622;2022-12-15T02:10:51;33.33;;;18.00;;
38499;SDS011;24269;51.894;4.622;2022-12-15T02:15:56;15.23;;;8.85;;
38499;SDS011;24269;51.894;4.622;2022-12-15T02:18:57;14.35;;;7.93;;
38499;SDS011;24269;51.894;4.622;2022-12-15T02:29:39;33.80;;;14.65;;
38499;SDS011;24269;51.894;4.622;2022-12-15T02:32:13;16.95;;;8.85;;
38499;SDS011;24269;51.894;4.622;2022-12-15T02:34:53;15.43;;;8.35;;
38499;SDS011;24269;51.894;4.622;2022-12-15T02:37:25;13.90;;;7.47;;
38499;SDS011;24269;51.894;4.622;2022-12-15T02:39:55;16.90;;;7.68;;
38499;SDS011;24269;51.894;4.622;2022-12-15T02:42:21;14.80;;;6.68;;
38499;SDS011;24269;51.894;4.622;2022-12-15T02:44:52;12.82;;;6.43;;
38499;SDS011;24269;51.894;4.622;2022-12-15T03:01:15;14.57;;;8.15;;
38499;SDS011;24269;51.894;4.622;2022-12-15T03:03:49;15.25;;;7.53;;
38499;SDS011;24269;51.894;4.622;2022-12-15T03:06:15;14.88;;;6.97;;
38499;SDS011;24269;51.894;4.622;2022-12-15T03:08:42;13.32;;;6.35;;
38499;SDS011;24269;51.894;4.622;2022-12-15T03:11:07;13.43;;;6.40;;
38499;SDS011;24269;51.894;4.622;2022-12-15T03:13:33;10.68;;;6.25;;
38499;SDS011;24269;51.894;4.622;2022-12-15T03:15:59;13.88;;;7.72;;
38499;SDS011;24269;51.894;4.622;2022-12-15T03:18:24;13.35;;;7.03;;
38499;SDS011;24269;51.894;4.622;2022-12-15T03:20:51;14.20;;;7.25;;
38499;SDS011;24269;51.894;4.622;2022-12-15T03:23:17;11.88;;;5.97;;
38499;SDS011;24269;51.894;4.622;2022-12-15T03:25:44;13.07;;;6.75;;
38499;SDS011;24269;51.894;4.622;2022-12-15T03:28:10;14.55;;;7.15;;
38499;SDS011;24269;51.894;4.622;2022-12-15T03:30:36;15.98;;;8.82;;
38499;SDS011;24269;51.894;4.622;2022-12-15T03:33:02;17.80;;;8.73;;
38499;SDS011;24269;51.894;4.622;2022-12-15T03:35:28;15.93;;;7.30;;
38499;SDS011;24269;51.894;4.622;2022-12-15T03:37:54;14.93;;;6.65;;
38499;SDS011;24269;51.894;4.622;2022-12-15T03:40:20;24.25;;;13.65;;
38499;SDS011;24269;51.894;4.622;2022-12-15T03:42:45;16.02;;;7.97;;
38499;SDS011;24269;51.894;4.622;2022-12-15T03:45:15;15.02;;;8.00;;
38499;SDS011;24269;51.894;4.622;2022-12-15T03:50:11;17.23;;;8.55;;
38499;SDS011;24269;51.894;4.622;2022-12-15T03:52:38;14.40;;;7.82;;
38499;SDS011;24269;51.894;4.622;2022-12-15T03:55:04;16.55;;;8.10;;
38499;SDS011;24269;51.894;4.622;2022-12-15T03:57:31;16.85;;;7.97;;
38499;SDS011;24269;51.894;4.622;2022-12-15T04:00:00;15.93;;;7.75;;
38499;SDS011;24269;51.894;4.622;2022-12-15T04:02:25;15.73;;;7.43;;
38499;SDS011;24269;51.894;4.622;2022-12-15T04:04:51;17.45;;;7.57;;
38499;SDS011;24269;51.894;4.622;2022-12-15T04:07:17;13.73;;;7.13;;
38499;SDS011;24269;51.894;4.622;2022-12-15T04:09:43;12.65;;;6.85;;
38499;SDS011;24269;51.894;4.622;2022-12-15T04:12:11;14.55;;;6.63;;
38499;SDS011;24269;51.894;4.622;2022-12-15T04:14:37;15.00;;;6.90;;
38499;SDS011;24269;51.894;4.622;2022-12-15T04:17:09;15.82;;;7.20;;
38499;SDS011;24269;51.894;4.622;2022-12-15T04:19:35;10.68;;;6.00;;
38499;SDS011;24269;51.894;4.622;2022-12-15T04:22:40;13.10;;;6.72;;
38499;SDS011;24269;51.894;4.622;2022-12-15T04:25:08;14.45;;;7.70;;
38499;SDS011;24269;51.894;4.622;2022-12-15T04:27:55;15.00;;;7.10;;
38499;SDS011;24269;51.894;4.622;2022-12-15T04:30:41;12.40;;;6.50;;
38499;SDS011;24269;51.894;4.622;2022-12-15T04:33:31;16.65;;;6.22;;
38499;SDS011;24269;51.894;4.622;2022-12-15T04:36:16;14.75;;;7.00;;
38499;SDS011;24269;51.894;4.622;2022-12-15T04:39:02;12.40;;;6.50;;
38499;SDS011;24269;51.894;4.622;2022-12-15T04:41:47;21.10;;;7.70;;
38499;SDS011;24269;51.894;4.622;2022-12-15T04:44:32;15.77;;;7.20;;
38499;SDS011;24269;51.894;4.622;2022-12-15T04:47:17;14.43;;;7.43;;
38499;SDS011;24269;51.894;4.622;2022-12-15T04:50:01;16.58;;;7.75;;
38499;SDS011;24269;51.894;4.622;2022-12-15T04:52:45;14.98;;;6.57;;
38499;SDS011;24269;51.894;4.622;2022-12-15T04:55:33;14.45;;;6.88;;
38499;SDS011;24269;51.894;4.622;2022-12-15T04:58:18;15.80;;;7.72;;
38499;SDS011;24269;51.894;4.622;2022-12-15T05:01:02;18.50;;;7.22;;
38499;SDS011;24269;51.894;4.622;2022-12-15T05:03:47;16.48;;;6.60;;
38499;SDS011;24269;51.894;4.622;2022-12-15T05:06:31;13.93;;;7.60;;
38499;SDS011;24269;51.894;4.622;2022-12-15T05:09:15;12.63;;;7.07;;
38499;SDS011;24269;51.894;4.622;2022-12-15T05:11:59;17.48;;;7.05;;
38499;SDS011;24269;51.894;4.622;2022-12-15T05:14:43;13.18;;;7.05;;
38499;SDS011;24269;51.894;4.622;2022-12-15T05:17:28;12.45;;;6.43;;
38499;SDS011;24269;51.894;4.622;2022-12-15T05:20:12;16.02;;;8.00;;
38499;SDS011;24269;51.894;4.622;2022-12-15T05:22:57;13.73;;;7.43;;
38499;SDS011;24269;51.894;4.622;2022-12-15T05:25:42;19.80;;;7.68;;
38499;SDS011;24269;51.894;4.622;2022-12-15T05:28:27;14.98;;;8.13;;
38499;SDS011;24269;51.894;4.622;2022-12-15T05:31:11;16.27;;;8.30;;
38499;SDS011;24269;51.894;4.622;2022-12-15T05:33:56;18.63;;;7.68;;
38499;SDS011;24269;51.894;4.622;2022-12-15T05:36:23;17.77;;;7.28;;
38499;SDS011;24269;51.894;4.622;2022-12-15T05:38:49;18.40;;;7.55;;
38499;SDS011;24269;51.894;4.622;2022-12-15T05:41:15;16.83;;;8.20;;
38499;SDS011;24269;51.894;4.622;2022-12-15T05:43:44;16.02;;;7.57;;
38499;SDS011;24269;51.894;4.622;2022-12-15T05:46:10;14.48;;;8.18;;
38499;SDS011;24269;51.894;4.622;2022-12-15T05:48:36;18.35;;;7.82;;
38499;SDS011;24269;51.894;4.622;2022-12-15T05:51:06;16.67;;;8.48;;
38499;SDS011;24269;51.894;4.622;2022-12-15T05:53:34;18.25;;;8.75;;
38499;SDS011;24269;51.894;4.622;2022-12-15T05:56:01;16.33;;;9.05;;
38499;SDS011;24269;51.894;4.622;2022-12-15T05:58:30;21.33;;;8.93;;
38499;SDS011;24269;51.894;4.622;2022-12-15T06:01:03;16.67;;;8.55;;
38499;SDS011;24269;51.894;4.622;2022-12-15T06:03:33;17.42;;;8.95;;
38499;SDS011;24269;51.894;4.622;2022-12-15T06:05:59;15.77;;;8.23;;
38499;SDS011;24269;51.894;4.622;2022-12-15T06:08:28;18.48;;;9.48;;
38499;SDS011;24269;51.894;4.622;2022-12-15T06:10:56;18.00;;;8.00;;
38499;SDS011;24269;51.894;4.622;2022-12-15T06:13:22;19.50;;;9.35;;
38499;SDS011;24269;51.894;4.622;2022-12-15T06:15:58;17.65;;;8.27;;
38499;SDS011;24269;51.894;4.622;2022-12-15T06:18:25;18.42;;;9.20;;
38499;SDS011;24269;51.894;4.622;2022-12-15T06:21:03;17.50;;;9.05;;
38499;SDS011;24269;51.894;4.622;2022-12-15T06:23:31;19.42;;;8.38;;
38499;SDS011;24269;51.894;4.622;2022-12-15T06:25:57;23.20;;;9.40;;
38499;SDS011;24269;51.894;4.622;2022-12-15T06:28:24;16.83;;;8.35;;
38499;SDS011;24269;51.894;4.622;2022-12-15T06:31:00;19.20;;;9.45;;
38499;SDS011;24269;51.894;4.622;2022-12-15T06:33:27;23.10;;;9.52;;
38499;SDS011;24269;51.894;4.622;2022-12-15T06:35:54;17.10;;;8.73;;
38499;SDS011;24269;51.894;4.622;2022-12-15T06:38:19;15.27;;;8.18;;
38499;SDS011;24269;51.894;4.622;2022-12-15T06:40:45;19.50;;;9.30;;
38499;SDS011;24269;51.894;4.622;2022-12-15T06:43:18;15.68;;;8.15;;
38499;SDS011;24269;51.894;4.622;2022-12-15T06:45:46;18.45;;;9.07;;
38499;SDS011;24269;51.894;4.622;2022-12-15T06:48:13;20.45;;;9.70;;
38499;SDS011;24269;51.894;4.622;2022-12-15T06:50:39;14.55;;;8.40;;
38499;SDS011;24269;51.894;4.622;2022-12-15T06:53:05;18.88;;;8.73;;
38499;SDS011;24269;51.894;4.622;2022-12-15T06:55:31;191.43;;;58.15;;
38499;SDS011;24269;51.894;4.622;2022-12-15T06:57:57;94.90;;;33.53;;
38499;SDS011;24269;51.894;4.622;2022-12-15T07:00:22;110.80;;;39.42;;
38499;SDS011;24269;51.894;4.622;2022-12-15T07:02:48;90.40;;;29.40;;
38499;SDS011;24269;51.894;4.622;2022-12-15T07:05:14;37.75;;;16.50;;
38499;SDS011;24269;51.894;4.622;2022-12-15T07:07:40;21.02;;;9.60;;
38499;SDS011;24269;51.894;4.622;2022-12-15T07:10:05;19.67;;;8.95;;
38499;SDS011;24269;51.894;4.622;2022-12-15T07:12:31;19.50;;;8.68;;
38499;SDS011;24269;51.894;4.622;2022-12-15T07:14:57;25.08;;;10.38;;
38499;SDS011;24269;51.894;4.622;2022-12-15T07:17:22;19.15;;;8.85;;
38499;SDS011;24269;51.894;4.622;2022-12-15T07:19:48;19.80;;;8.98;;
38499;SDS011;24269;51.894;4.622;2022-12-15T07:22:14;19.17;;;8.90;;
38499;SDS011;24269;51.894;4.622;2022-12-15T07:24:39;20.00;;;8.63;;
38499;SDS011;24269;51.894;4.622;2022-12-15T07:27:05;17.63;;;8.55;;
38499;SDS011;24269;51.894;4.622;2022-12-15T07:29:30;16.35;;;8.60;;
38499;SDS011;24269;51.894;4.622;2022-12-15T07:31:56;21.50;;;9.00;;
38499;SDS011;24269;51.894;4.622;2022-12-15T07:34:24;23.58;;;9.88;;
38499;SDS011;24269;51.894;4.622;2022-12-15T07:36:50;21.45;;;9.07;;
38499;SDS011;24269;51.894;4.622;2022-12-15T07:39:15;21.15;;;9.77;;
38499;SDS011;24269;51.894;4.622;2022-12-15T07:41:41;22.15;;;10.75;;
38499;SDS011;24269;51.894;4.622;2022-12-15T07:44:06;25.38;;;11.30;;
38499;SDS011;24269;51.894;4.622;2022-12-15T07:46:32;22.15;;;10.30;;
38499;SDS011;24269;51.894;4.622;2022-12-15T07:48:58;18.42;;;8.73;;
38499;SDS011;24269;51.894;4.622;2022-12-15T07:51:24;18.60;;;9.23;;
38499;SDS011;24269;51.894;4.622;2022-12-15T07:53:51;24.77;;;10.75;;
38499;SDS011;24269;51.894;4.622;2022-12-15T07:56:18;35.65;;;12.45;;
38499;SDS011;24269;51.894;4.622;2022-12-15T07:58:44;20.75;;;9.82;;
38499;SDS011;24269;51.894;4.622;2022-12-15T08:01:11;17.55;;;9.55;;
38499;SDS011;24269;51.894;4.622;2022-12-15T08:03:38;19.02;;;9.68;;
38499;SDS011;24269;51.894;4.622;2022-12-15T08:06:08;21.55;;;10.57;;
38499;SDS011;24269;51.894;4.622;2022-12-15T08:08:36;21.67;;;9.57;;
38499;SDS011;24269;51.894;4.622;2022-12-15T08:11:05;21.98;;;10.73;;
38499;SDS011;24269;51.894;4.622;2022-12-15T08:13:35;21.70;;;10.33;;
38499;SDS011;24269;51.894;4.622;2022-12-15T08:16:02;21.38;;;10.90;;
38499;SDS011;24269;51.894;4.622;2022-12-15T08:18:27;22.65;;;9.82;;
38499;SDS011;24269;51.894;4.622;2022-12-15T08:20:53;22.15;;;10.18;;
38499;SDS011;24269;51.894;4.622;2022-12-15T08:23:19;23.10;;;10.85;;
38499;SDS011;24269;51.894;4.622;2022-12-15T08:25:45;18.65;;;9.55;;
38499;SDS011;24269;51.894;4.622;2022-12-15T08:28:11;24.60;;;10.55;;
38499;SDS011;24269;51.894;4.622;2022-12-15T08:30:37;22.92;;;9.82;;
38499;SDS011;24269;51.894;4.622;2022-12-15T08:33:02;23.20;;;10.70;;
38499;SDS011;24269;51.894;4.622;2022-12-15T08:35:31;24.08;;;11.80;;
38499;SDS011;24269;51.894;4.622;2022-12-15T08:37:56;27.67;;;11.32;;
38499;SDS011;24269;51.894;4.622;2022-12-15T08:40:24;72.03;;;25.90;;
38499;SDS011;24269;51.894;4.622;2022-12-15T08:42:50;28.67;;;13.35;;
38499;SDS011;24269;51.894;4.622;2022-12-15T08:45:16;34.08;;;14.27;;
38499;SDS011;24269;51.894;4.622;2022-12-15T08:47:41;27.85;;;13.23;;
38499;SDS011;24269;51.894;4.622;2022-12-15T08:50:07;25.95;;;12.02;;
38499;SDS011;24269;51.894;4.622;2022-12-15T08:52:33;26.95;;;11.75;;
38499;SDS011;24269;51.894;4.622;2022-12-15T08:54:59;26.70;;;12.20;;
38499;SDS011;24269;51.894;4.622;2022-12-15T08:57:24;23.33;;;11.98;;
38499;SDS011;24269;51.894;4.622;2022-12-15T08:59:50;24.83;;;12.48;;
38499;SDS011;24269;51.894;4.622;2022-12-15T09:02:15;23.90;;;12.30;;
38499;SDS011;24269;51.894;4.622;2022-12-15T09:04:41;30.38;;;12.60;;
38499;SDS011;24269;51.894;4.622;2022-12-15T09:07:08;27.05;;;12.68;;
38499;SDS011;24269;51.894;4.622;2022-12-15T09:09:33;35.08;;;14.50;;
38499;SDS011;24269;51.894;4.622;2022-12-15T09:11:59;31.75;;;13.50;;
38499;SDS011;24269;51.894;4.622;2022-12-15T09:14:24;36.22;;;15.48;;
38499;SDS011;24269;51.894;4.622;2022-12-15T09:16:50;33.38;;;13.48;;
38499;SDS011;24269;51.894;4.622;2022-12-15T09:19:19;25.95;;;14.48;;
38499;SDS011;24269;51.894;4.622;2022-12-15T09:21:44;28.20;;;14.00;;
38499;SDS011;24269;51.894;4.622;2022-12-15T09:24:11;30.73;;;13.73;;
38499;SDS011;24269;51.894;4.622;2022-12-15T09:26:38;75.53;;;22.02;;
38499;SDS011;24269;51.894;4.622;2022-12-15T09:29:04;33.60;;;14.38;;
38499;SDS011;24269;51.894;4.622;2022-12-15T09:31:31;29.63;;;14.20;;
38499;SDS011;24269;51.894;4.622;2022-12-15T09:34:00;27.48;;;13.35;;
38499;SDS011;24269;51.894;4.622;2022-12-15T09:36:26;33.08;;;13.88;;
38499;SDS011;24269;51.894;4.622;2022-12-15T09:38:54;38.15;;;15.15;;
38499;SDS011;24269;51.894;4.622;2022-12-15T09:41:25;33.70;;;14.55;;
38499;SDS011;24269;51.894;4.622;2022-12-15T09:44:03;27.48;;;14.63;;
38499;SDS011;24269;51.894;4.622;2022-12-15T09:49:21;31.98;;;15.43;;
38499;SDS011;24269;51.894;4.622;2022-12-15T09:54:36;27.27;;;15.32;;
38499;SDS011;24269;51.894;4.622;2022-12-15T10:12:53;32.38;;;16.15;;
38499;SDS011;24269;51.894;4.622;2022-12-15T10:15:23;33.85;;;16.55;;
38499;SDS011;24269;51.894;4.622;2022-12-15T10:18:17;31.83;;;16.77;;
38499;SDS011;24269;51.894;4.622;2022-12-15T10:20:46;32.15;;;16.05;;
38499;SDS011;24269;51.894;4.622;2022-12-15T10:23:13;30.90;;;16.13;;
38499;SDS011;24269;51.894;4.622;2022-12-15T10:25:43;30.55;;;15.07;;
38499;SDS011;24269;51.894;4.622;2022-12-15T10:28:35;33.72;;;16.92;;
38499;SDS011;24269;51.894;4.622;2022-12-15T10:31:39;29.13;;;15.35;;
38499;SDS011;24269;51.894;4.622;2022-12-15T10:36:52;25.58;;;12.85;;
38499;SDS011;24269;51.894;4.622;2022-12-15T10:39:19;25.38;;;13.05;;
38499;SDS011;24269;51.894;4.622;2022-12-15T10:41:46;27.77;;;13.10;;
38499;SDS011;24269;51.894;4.622;2022-12-15T10:44:45;51.55;;;21.00;;
38499;SDS011;24269;51.894;4.622;2022-12-15T10:47:17;49.85;;;21.33;;
38499;SDS011;24269;51.894;4.622;2022-12-15T10:49:43;61.22;;;25.38;;
38499;SDS011;24269;51.894;4.622;2022-12-15T10:52:15;77.63;;;29.40;;
38499;SDS011;24269;51.894;4.622;2022-12-15T10:54:47;30.35;;;14.32;;
38499;SDS011;24269;51.894;4.622;2022-12-15T10:57:22;45.35;;;18.25;;
38499;SDS011;24269;51.894;4.622;2022-12-15T10:59:52;23.08;;;11.02;;
38499;SDS011;24269;51.894;4.622;2022-12-15T11:03:35;18.55;;;10.18;;
38499;SDS011;24269;51.894;4.622;2022-12-15T11:06:01;19.13;;;9.90;;
38499;SDS011;24269;51.894;4.622;2022-12-15T11:08:42;18.55;;;10.57;;
38499;SDS011;24269;51.894;4.622;2022-12-15T11:11:30;17.10;;;9.93;;
38499;SDS011;24269;51.894;4.622;2022-12-15T11:14:21;19.27;;;11.05;;
38499;SDS011;24269;51.894;4.622;2022-12-15T11:16:51;21.65;;;11.90;;
38499;SDS011;24269;51.894;4.622;2022-12-15T11:21:52;20.25;;;11.02;;
38499;SDS011;24269;51.894;4.622;2022-12-15T11:24:42;23.50;;;12.07;;
38499;SDS011;24269;51.894;4.622;2022-12-15T11:27:16;21.30;;;11.45;;
38499;SDS011;24269;51.894;4.622;2022-12-15T11:32:28;23.73;;;12.43;;
38499;SDS011;24269;51.894;4.622;2022-12-15T11:34:57;21.50;;;11.25;;
38499;SDS011;24269;51.894;4.622;2022-12-15T11:37:32;21.55;;;11.90;;
38499;SDS011;24269;51.894;4.622;2022-12-15T11:51:26;22.92;;;11.45;;
38499;SDS011;24269;51.894;4.622;2022-12-15T11:56:36;21.77;;;11.85;;
38499;SDS011;24269;51.894;4.622;2022-12-15T12:10:54;19.90;;;10.10;;
38499;SDS011;24269;51.894;4.622;2022-12-15T12:19:04;19.13;;;9.38;;
38499;SDS011;24269;51.894;4.622;2022-12-15T12:21:52;17.27;;;9.70;;
38499;SDS011;24269;51.894;4.622;2022-12-15T12:24:32;14.95;;;8.38;;
38499;SDS011;24269;51.894;4.622;2022-12-15T12:27:04;20.27;;;10.00;;
38499;SDS011;24269;51.894;4.622;2022-12-15T12:29:34;15.80;;;8.43;;
38499;SDS011;24269;51.894;4.622;2022-12-15T12:32:21;14.55;;;8.57;;
38499;SDS011;24269;51.894;4.622;2022-12-15T12:37:50;12.90;;;7.70;;
38499;SDS011;24269;51.894;4.622;2022-12-15T12:40:40;15.05;;;7.95;;
38499;SDS011;24269;51.894;4.622;2022-12-15T12:43:33;15.43;;;8.80;;
38499;SDS011;24269;51.894;4.622;2022-12-15T12:46:46;16.40;;;8.65;;
38499;SDS011;24269;51.894;4.622;2022-12-15T12:51:34;14.30;;;8.25;;
38499;SDS011;24269;51.894;4.622;2022-12-15T12:54:02;15.98;;;8.82;;
38499;SDS011;24269;51.894;4.622;2022-12-15T13:01:56;16.75;;;8.77;;
38499;SDS011;24269;51.894;4.622;2022-12-15T13:04:47;15.98;;;8.52;;
38499;SDS011;24269;51.894;4.622;2022-12-15T13:17:59;17.65;;;8.48;;
38499;SDS011;24269;51.894;4.622;2022-12-15T13:20:43;13.00;;;7.88;;
38499;SDS011;24269;51.894;4.622;2022-12-15T13:46:54;20.83;;;8.52;;
38499;SDS011;24269;51.894;4.622;2022-12-15T13:49:33;16.17;;;7.95;;
38499;SDS011;24269;51.894;4.622;2022-12-15T13:52:07;14.32;;;8.07;;
38499;SDS011;24269;51.894;4.622;2022-12-15T13:55:02;12.88;;;7.97;;
38499;SDS011;24269;51.894;4.622;2022-12-15T13:57:41;19.52;;;7.78;;
38499;SDS011;24269;51.894;4.622;2022-12-15T14:00:14;14.20;;;8.10;;
38499;SDS011;24269;51.894;4.622;2022-12-15T14:02:43;17.08;;;9.30;;
38499;SDS011;24269;51.894;4.622;2022-12-15T14:08:30;17.02;;;9.50;;
38499;SDS011;24269;51.894;4.622;2022-12-15T14:10:47;18.77;;;9.95;;
38499;SDS011;24269;51.894;4.622;2022-12-15T14:13:23;20.90;;;9.90;;
38499;SDS011;24269;51.894;4.622;2022-12-15T14:16:01;21.08;;;10.65;;
38499;SDS011;24269;51.894;4.622;2022-12-15T14:18:29;17.50;;;10.32;;
38499;SDS011;24269;51.894;4.622;2022-12-15T14:20:57;19.58;;;10.30;;
38499;SDS011;24269;51.894;4.622;2022-12-15T14:23:25;19.13;;;9.95;;
38499;SDS011;24269;51.894;4.622;2022-12-15T14:26:00;17.33;;;9.75;;
38499;SDS011;24269;51.894;4.622;2022-12-15T14:28:35;17.85;;;10.27;;
38499;SDS011;24269;51.894;4.622;2022-12-15T14:31:09;20.98;;;11.30;;
38499;SDS011;24269;51.894;4.622;2022-12-15T14:33:45;23.53;;;12.53;;
38499;SDS011;24269;51.894;4.622;2022-12-15T14:36:12;24.70;;;12.93;;
38499;SDS011;24269;51.894;4.622;2022-12-15T14:44:03;22.70;;;12.98;;
38499;SDS011;24269;51.894;4.622;2022-12-15T14:46:31;24.38;;;12.38;;
38499;SDS011;24269;51.894;4.622;2022-12-15T14:48:58;21.85;;;12.48;;
38499;SDS011;24269;51.894;4.622;2022-12-15T14:51:28;22.95;;;12.95;;
38499;SDS011;24269;51.894;4.622;2022-12-15T14:54:02;23.30;;;13.23;;
38499;SDS011;24269;51.894;4.622;2022-12-15T14:56:29;24.48;;;13.18;;
38499;SDS011;24269;51.894;4.622;2022-12-15T14:59:00;27.42;;;13.63;;
38499;SDS011;24269;51.894;4.622;2022-12-15T15:01:37;24.08;;;13.63;;
38499;SDS011;24269;51.894;4.622;2022-12-15T15:06:57;26.40;;;13.63;;
38499;SDS011;24269;51.894;4.622;2022-12-15T15:09:26;27.02;;;13.90;;
38499;SDS011;24269;51.894;4.622;2022-12-15T15:12:01;24.83;;;13.73;;
38499;SDS011;24269;51.894;4.622;2022-12-15T15:14:29;26.80;;;13.13;;
38499;SDS011;24269;51.894;4.622;2022-12-15T15:17:05;27.38;;;13.93;;
38499;SDS011;24269;51.894;4.622;2022-12-15T15:19:52;27.25;;;13.93;;
38499;SDS011;24269;51.894;4.622;2022-12-15T15:22:37;23.63;;;13.80;;
38499;SDS011;24269;51.894;4.622;2022-12-15T15:27:49;24.67;;;13.40;;
38499;SDS011;24269;51.894;4.622;2022-12-15T15:30:21;25.60;;;13.57;;
38499;SDS011;24269;51.894;4.622;2022-12-15T15:32:57;28.10;;;14.07;;
38499;SDS011;24269;51.894;4.622;2022-12-15T15:35:29;23.88;;;13.18;;
38499;SDS011;24269;51.894;4.622;2022-12-15T15:40:40;26.60;;;13.77;;
38499;SDS011;24269;51.894;4.622;2022-12-15T15:43:10;26.80;;;13.82;;
38499;SDS011;24269;51.894;4.622;2022-12-15T15:45:36;24.35;;;13.88;;
38499;SDS011;24269;51.894;4.622;2022-12-15T15:48:03;26.27;;;14.30;;
38499;SDS011;24269;51.894;4.622;2022-12-15T15:50:29;31.75;;;14.30;;
38499;SDS011;24269;51.894;4.622;2022-12-15T15:52:56;24.35;;;13.75;;
38499;SDS011;24269;51.894;4.622;2022-12-15T15:55:27;24.90;;;13.30;;
38499;SDS011;24269;51.894;4.622;2022-12-15T15:57:55;26.08;;;14.25;;
38499;SDS011;24269;51.894;4.622;2022-12-15T16:00:22;26.80;;;15.05;;
38499;SDS011;24269;51.894;4.622;2022-12-15T16:02:49;31.25;;;15.32;;
38499;SDS011;24269;51.894;4.622;2022-12-15T16:05:15;26.58;;;14.85;;
38499;SDS011;24269;51.894;4.622;2022-12-15T16:07:42;25.40;;;14.55;;
38499;SDS011;24269;51.894;4.622;2022-12-15T16:10:10;28.85;;;15.45;;
38499;SDS011;24269;51.894;4.622;2022-12-15T16:12:45;31.88;;;16.63;;
38499;SDS011;24269;51.894;4.622;2022-12-15T16:17:45;33.13;;;17.10;;
38499;SDS011;24269;51.894;4.622;2022-12-15T16:20:11;34.10;;;16.20;;
38499;SDS011;24269;51.894;4.622;2022-12-15T16:22:39;36.17;;;17.70;;
38499;SDS011;24269;51.894;4.622;2022-12-15T16:25:16;30.50;;;17.23;;
38499;SDS011;24269;51.894;4.622;2022-12-15T16:27:51;31.85;;;16.77;;
38499;SDS011;24269;51.894;4.622;2022-12-15T16:30:18;34.10;;;17.83;;
38499;SDS011;24269;51.894;4.622;2022-12-15T16:32:49;30.88;;;17.05;;
38499;SDS011;24269;51.894;4.622;2022-12-15T16:35:16;32.05;;;17.65;;
38499;SDS011;24269;51.894;4.622;2022-12-15T16:37:41;37.03;;;17.27;;
38499;SDS011;24269;51.894;4.622;2022-12-15T16:40:21;41.33;;;19.40;;
38499;SDS011;24269;51.894;4.622;2022-12-15T16:45:20;57.03;;;21.53;;
38499;SDS011;24269;51.894;4.622;2022-12-15T16:47:46;43.38;;;21.42;;
38499;SDS011;24269;51.894;4.622;2022-12-15T16:50:13;41.00;;;19.13;;
38499;SDS011;24269;51.894;4.622;2022-12-15T16:52:40;44.35;;;20.88;;
38499;SDS011;24269;51.894;4.622;2022-12-15T16:55:09;42.97;;;20.13;;
38499;SDS011;24269;51.894;4.622;2022-12-15T16:57:47;39.17;;;19.55;;
38499;SDS011;24269;51.894;4.622;2022-12-15T17:00:14;38.25;;;19.88;;
38499;SDS011;24269;51.894;4.622;2022-12-15T17:02:41;43.25;;;20.85;;
38499;SDS011;24269;51.894;4.622;2022-12-15T17:05:07;37.00;;;18.80;;
38499;SDS011;24269;51.894;4.622;2022-12-15T17:07:33;39.72;;;19.75;;
38499;SDS011;24269;51.894;4.622;2022-12-15T17:09:59;39.97;;;19.50;;
38499;SDS011;24269;51.894;4.622;2022-12-15T17:12:26;42.53;;;18.73;;
38499;SDS011;24269;51.894;4.622;2022-12-15T17:14:52;38.47;;;18.92;;
38499;SDS011;24269;51.894;4.622;2022-12-15T17:17:20;40.88;;;20.25;;
38499;SDS011;24269;51.894;4.622;2022-12-15T17:19:51;43.00;;;19.98;;
38499;SDS011;24269;51.894;4.622;2022-12-15T17:22:17;37.50;;;18.58;;
38499;SDS011;24269;51.894;4.622;2022-12-15T17:24:50;35.58;;;18.80;;
38499;SDS011;24269;51.894;4.622;2022-12-15T17:29:56;35.70;;;19.80;;
38499;SDS011;24269;51.894;4.622;2022-12-15T17:32:23;39.17;;;18.80;;
38499;SDS011;24269;51.894;4.622;2022-12-15T17:34:49;39.70;;;19.27;;
38499;SDS011;24269;51.894;4.622;2022-12-15T17:37:15;43.95;;;20.08;;
38499;SDS011;24269;51.894;4.622;2022-12-15T17:39:41;42.03;;;19.30;;
38499;SDS011;24269;51.894;4.622;2022-12-15T17:42:18;42.28;;;19.13;;